Terminal Aerodrome Forecast
Issued by NWS

Home | Current Version | Previous Version | Text Only | Print | Product List | Glossary On
Versions: 1 2 3 4 5 6 7 8 9 10 11 12 13 14 15 16 17 18 19 20 21 22 23
494
FTUS43 KDLH 071727
TAFBRD
TAF
KBRD 071727Z 0718/0818 29015G22KT P6SM -RASN OVC020
     FM072100 31017G29KT 3SM -SN BLSN OVC015
     FM080000 32021G34KT 3SM -SN BLSN OVC015
     FM080900 33018G28KT 6SM -SN BLSN OVC020
     FM081600 34016G25KT P6SM -SN SCT025 OVC035=

USA.gov is the U.S. government's official web portal to all federal, state and local government web resources and services.